createdAt,value
2019-03-22T00:00:32.935Z,6.10
2019-03-22T00:02:36.704Z,5.77
2019-03-22T00:04:40.408Z,5.93
2019-03-22T00:06:45.049Z,5.70
2019-03-22T00:08:48.784Z,5.50
2019-03-22T00:10:52.501Z,6.30
2019-03-22T00:12:56.665Z,5.77
2019-03-22T00:15:00.452Z,5.47
2019-03-22T00:17:04.356Z,5.50
2019-03-22T00:19:08.106Z,5.57
2019-03-22T00:21:11.879Z,5.43
2019-03-22T00:23:15.619Z,5.00
2019-03-22T00:25:19.353Z,5.77
2019-03-22T00:27:23.291Z,6.20
2019-03-22T00:29:27.525Z,5.50
2019-03-22T00:31:31.174Z,5.47
2019-03-22T00:33:34.915Z,5.80
2019-03-22T00:35:38.685Z,5.00
2019-03-22T00:37:42.462Z,5.63
2019-03-22T00:39:46.251Z,5.43
2019-03-22T00:41:50.083Z,6.37
2019-03-22T00:43:53.857Z,5.97
2019-03-22T00:45:57.723Z,5.37
2019-03-22T00:48:01.489Z,5.67
2019-03-22T00:50:09.692Z,6.20
2019-03-22T00:52:13.463Z,5.73
2019-03-22T00:54:17.244Z,5.00
2019-03-22T00:56:21.039Z,6.17
2019-03-22T00:58:24.851Z,5.83
2019-03-22T01:00:28.567Z,6.30
2019-03-22T01:02:32.252Z,5.93
2019-03-22T01:04:36.120Z,5.77
2019-03-22T01:06:39.858Z,6.53
2019-03-22T01:08:43.695Z,6.20
2019-03-22T01:10:47.533Z,6.13
2019-03-22T01:12:51.304Z,5.97
2019-03-22T01:14:55.160Z,5.93
2019-03-22T01:16:58.970Z,6.60
2019-03-22T01:19:02.727Z,6.57
2019-03-22T01:21:06.531Z,8.03
2019-03-22T01:23:10.381Z,9.27
2019-03-22T01:25:14.066Z,9.57
2019-03-22T01:27:18.841Z,9.40
2019-03-22T01:29:22.606Z,9.20
2019-03-22T01:31:26.405Z,7.10
2019-03-22T01:33:30.249Z,7.23
2019-03-22T01:35:34.143Z,6.77
2019-03-22T01:37:37.824Z,5.73
2019-03-22T01:39:41.673Z,5.70
2019-03-22T01:41:45.518Z,5.67
2019-03-22T01:43:49.315Z,6.17
2019-03-22T01:45:53.134Z,5.43
2019-03-22T01:47:56.681Z,5.97
2019-03-22T01:50:00.416Z,6.30
2019-03-22T01:52:05.196Z,5.87
2019-03-22T01:54:09.047Z,5.90
2019-03-22T01:56:12.750Z,5.60
2019-03-22T01:58:16.497Z,5.70
2019-03-22T02:00:20.307Z,5.60
2019-03-22T02:02:24.132Z,6.43
2019-03-22T02:04:27.979Z,6.03
2019-03-22T02:06:31.759Z,6.00
2019-03-22T02:08:35.494Z,5.67
2019-03-22T02:10:39.373Z,5.83
2019-03-22T02:12:43.181Z,5.90
2019-03-22T02:14:47.021Z,6.40
2019-03-22T02:16:50.774Z,6.10
2019-03-22T02:18:54.503Z,6.90
2019-03-22T02:20:58.221Z,6.93
2019-03-22T02:23:02.490Z,7.00
2019-03-22T02:25:07.069Z,7.43
2019-03-22T02:27:10.825Z,11.00
2019-03-22T02:29:14.636Z,11.60
2019-03-22T02:31:18.518Z,13.00
2019-03-22T02:33:22.138Z,13.80
2019-03-22T02:35:28.807Z,14.13
2019-03-22T02:37:31.592Z,13.97
2019-03-22T02:39:35.488Z,13.27
2019-03-22T02:41:39.401Z,11.90
2019-03-22T02:43:43.211Z,10.57
2019-03-22T02:45:47.091Z,9.23
2019-03-22T02:47:50.759Z,8.20
2019-03-22T02:49:54.553Z,6.60
2019-03-22T02:51:58.451Z,7.10
2019-03-22T02:54:02.251Z,7.07
2019-03-22T02:56:06.196Z,7.30
2019-03-22T02:58:20.675Z,8.57
2019-03-22T03:00:17.561Z,10.10
2019-03-22T03:02:21.470Z,11.47
2019-03-22T03:04:25.379Z,14.17
2019-03-22T03:06:29.332Z,16.40
2019-03-22T03:08:36.036Z,18.67
2019-03-22T03:10:40.031Z,15.87
2019-03-22T03:12:44.256Z,16.50
2019-03-22T03:14:48.167Z,12.50
2019-03-22T03:16:52.194Z,13.97
2019-03-22T03:18:56.125Z,10.33
2019-03-22T03:21:00.037Z,10.00
2019-03-22T03:23:03.926Z,9.97
2019-03-22T03:25:08.638Z,8.27
2019-03-22T03:27:12.449Z,7.77
2019-03-22T03:29:16.315Z,7.07
2019-03-22T03:31:20.288Z,6.20
2019-03-22T03:33:24.164Z,6.50
2019-03-22T03:35:28.125Z,6.10
2019-03-22T03:37:31.843Z,6.73
2019-03-22T03:39:35.635Z,6.13
2019-03-22T03:41:39.577Z,6.37
2019-03-22T03:43:44.029Z,6.87
2019-03-22T03:45:48.086Z,5.53
2019-03-22T03:47:51.806Z,6.33
2019-03-22T03:49:55.878Z,6.67
2019-03-22T03:51:59.876Z,6.40
2019-03-22T03:54:03.903Z,6.50
2019-03-22T03:56:08.028Z,6.20
2019-03-22T03:58:12.426Z,6.50
2019-03-22T04:00:16.867Z,6.27
2019-03-22T04:02:21.053Z,6.50
2019-03-22T04:04:25.077Z,6.83
2019-03-22T04:06:33.717Z,6.43
2019-03-22T04:08:34.865Z,6.43
2019-03-22T04:10:38.886Z,6.70
2019-03-22T04:12:43.083Z,6.63
2019-03-22T04:14:49.772Z,6.50
2019-03-22T04:16:53.815Z,5.30
2019-03-22T04:18:57.546Z,6.47
2019-03-22T04:21:01.264Z,6.30
2019-03-22T04:23:05.108Z,7.60
2019-03-22T04:25:09.233Z,7.53
2019-03-22T04:27:13.228Z,8.63
2019-03-22T04:29:17.140Z,8.53
2019-03-22T04:31:21.040Z,6.80
2019-03-22T04:33:24.806Z,7.23
2019-03-22T04:35:28.651Z,6.93
2019-03-22T04:37:33.938Z,6.50
2019-03-22T04:39:37.699Z,5.83
2019-03-22T04:41:41.609Z,5.33
2019-03-22T04:43:45.357Z,5.40
2019-03-22T04:45:50.657Z,6.20
2019-03-22T04:48:06.190Z,5.67
2019-03-22T04:50:10.022Z,5.87
2019-03-22T04:52:14.382Z,5.30
2019-03-22T04:54:19.902Z,6.13
2019-03-22T04:56:25.274Z,6.03
2019-03-22T04:58:29.949Z,5.40
2019-03-22T05:00:35.008Z,5.30
2019-03-22T05:02:41.363Z,5.90
2019-03-22T05:04:48.250Z,6.97
2019-03-22T05:06:53.267Z,5.87
2019-03-22T05:08:59.901Z,5.90
2019-03-22T05:11:05.572Z,7.37
2019-03-22T05:13:12.156Z,5.80
2019-03-22T05:15:18.849Z,7.90
2019-03-22T05:17:23.070Z,9.17
2019-03-22T05:19:29.368Z,9.47
2019-03-22T05:21:34.688Z,8.10
2019-03-22T05:23:39.650Z,7.60
2019-03-22T05:25:45.013Z,6.27
2019-03-22T05:27:50.275Z,6.40
2019-03-22T05:29:56.606Z,6.20
2019-03-22T05:32:05.223Z,6.20
2019-03-22T05:34:10.582Z,6.27
2019-03-22T05:36:14.334Z,5.33
2019-03-22T05:38:18.385Z,5.93
2019-03-22T05:40:22.274Z,5.80
2019-03-22T05:42:26.040Z,6.57
2019-03-22T05:44:29.814Z,6.07
2019-03-22T05:46:33.667Z,5.93
2019-03-22T05:48:37.583Z,5.60
2019-03-22T05:50:41.652Z,5.87
2019-03-22T05:52:45.385Z,6.70
2019-03-22T05:54:49.206Z,6.87
2019-03-22T05:56:53.030Z,9.03
2019-03-22T05:58:56.800Z,11.33
2019-03-22T06:01:00.814Z,10.40
2019-03-22T06:03:04.725Z,9.63
2019-03-22T06:05:08.544Z,8.30
2019-03-22T06:07:12.319Z,7.07
2019-03-22T06:09:16.624Z,6.40
2019-03-22T06:11:20.528Z,7.30
2019-03-22T06:13:24.332Z,6.73
2019-03-22T06:15:28.246Z,6.97
2019-03-22T06:17:32.052Z,6.67
2019-03-22T06:19:35.862Z,6.37
2019-03-22T06:21:40.901Z,6.60
2019-03-22T06:23:44.834Z,6.40
2019-03-22T06:25:49.257Z,6.70
2019-03-22T06:27:53.217Z,7.03
2019-03-22T06:29:56.904Z,7.03
2019-03-22T06:32:03.616Z,6.80
2019-03-22T06:34:07.409Z,8.13
2019-03-22T06:36:11.478Z,9.20
2019-03-22T06:38:17.608Z,9.00
2019-03-22T06:40:21.413Z,8.50
2019-03-22T06:42:25.254Z,7.37
2019-03-22T06:44:29.110Z,8.40
2019-03-22T06:46:32.999Z,9.53
2019-03-22T06:48:36.918Z,9.37
2019-03-22T06:50:40.761Z,8.67
2019-03-22T06:52:44.818Z,7.70
2019-03-22T06:54:48.674Z,8.00
2019-03-22T06:56:52.505Z,7.53
2019-03-22T06:58:56.290Z,7.37
2019-03-22T07:01:00.447Z,7.20
2019-03-22T07:03:04.516Z,8.60
2019-03-22T07:05:08.620Z,8.33
2019-03-22T07:07:12.501Z,8.57
2019-03-22T07:09:16.388Z,9.07
2019-03-22T07:11:20.101Z,9.23
2019-03-22T07:13:23.985Z,9.20
2019-03-22T07:15:27.786Z,9.87
2019-03-22T07:17:31.608Z,8.33
2019-03-22T07:19:35.511Z,8.13
2019-03-22T07:21:39.479Z,8.27
2019-03-22T07:23:43.340Z,8.13
2019-03-22T07:25:47.220Z,8.67
2019-03-22T07:27:51.236Z,9.50
2019-03-22T07:29:55.059Z,9.17
2019-03-22T07:31:58.896Z,11.23
2019-03-22T07:34:02.638Z,8.73
2019-03-22T07:36:06.537Z,9.00
2019-03-22T07:38:10.514Z,8.40
2019-03-22T07:40:14.826Z,8.20
2019-03-22T07:42:18.684Z,8.90
2019-03-22T07:44:22.497Z,9.87
2019-03-22T07:46:26.336Z,9.00
2019-03-22T07:48:30.007Z,9.13
2019-03-22T07:50:33.778Z,9.40
2019-03-22T07:52:37.592Z,9.00
2019-03-22T07:54:41.471Z,9.17
2019-03-22T07:56:45.639Z,8.50
2019-03-22T07:58:49.914Z,7.93
2019-03-22T08:00:55.232Z,9.40
2019-03-22T08:02:59.139Z,7.80
2019-03-22T08:05:03.363Z,8.27
2019-03-22T08:07:07.225Z,8.57
2019-03-22T08:09:11.086Z,6.97
2019-03-22T08:11:14.894Z,7.33
2019-03-22T08:13:18.925Z,6.90
2019-03-22T08:15:30.267Z,7.90
2019-03-22T08:17:34.105Z,8.13
2019-03-22T08:19:38.031Z,7.23
2019-03-22T08:21:42.141Z,6.73
2019-03-22T08:23:45.935Z,6.63
2019-03-22T08:25:50.057Z,7.00
2019-03-22T08:27:54.991Z,7.33
2019-03-22T08:29:59.016Z,7.07
2019-03-22T08:32:02.712Z,7.00
2019-03-22T08:34:06.363Z,7.90
2019-03-22T08:36:11.222Z,6.83
2019-03-22T08:38:17.448Z,6.47
2019-03-22T08:40:20.084Z,6.63
2019-03-22T08:42:23.629Z,6.40
2019-03-22T08:44:27.424Z,6.67
2019-03-22T08:46:31.166Z,6.70
2019-03-22T08:48:34.984Z,6.20
2019-03-22T08:50:38.693Z,6.90
2019-03-22T08:52:42.236Z,6.50
2019-03-22T08:54:45.905Z,6.53
2019-03-22T08:56:49.543Z,6.90
2019-03-22T08:58:53.209Z,6.87
2019-03-22T09:00:58.136Z,6.40
2019-03-22T09:03:02.068Z,6.10
2019-03-22T09:05:07.013Z,6.20
2019-03-22T09:07:10.717Z,5.93
2019-03-22T09:09:15.706Z,6.83
2019-03-22T09:11:19.361Z,6.27
2019-03-22T09:13:23.059Z,6.30
2019-03-22T09:15:26.733Z,6.00
2019-03-22T09:17:30.546Z,6.50
2019-03-22T09:19:34.149Z,6.80
2019-03-22T09:21:37.847Z,6.60
2019-03-22T09:23:41.748Z,6.60
2019-03-22T09:25:45.409Z,6.80
2019-03-22T09:27:49.073Z,7.00
2019-03-22T09:29:52.630Z,5.70
2019-03-22T09:31:56.209Z,5.80
2019-03-22T09:33:59.844Z,7.07
2019-03-22T09:36:03.531Z,6.80
2019-03-22T09:38:12.773Z,5.27
2019-03-22T09:40:12.468Z,6.20
2019-03-22T09:42:16.160Z,6.17
2019-03-22T09:44:19.815Z,6.40
2019-03-22T09:46:23.623Z,6.40
2019-03-22T09:48:27.236Z,6.20
2019-03-22T09:50:30.919Z,6.60
2019-03-22T09:52:34.691Z,5.60
2019-03-22T09:54:38.336Z,5.20
2019-03-22T09:56:47.266Z,6.37
2019-03-22T09:58:48.640Z,5.70
2019-03-22T10:00:52.383Z,6.50
2019-03-22T10:02:56.193Z,5.80
2019-03-22T10:04:59.869Z,6.17
2019-03-22T10:07:03.502Z,7.00
2019-03-22T10:09:07.541Z,7.57
2019-03-22T10:11:11.196Z,6.50
2019-03-22T10:13:14.916Z,6.77
2019-03-22T10:15:18.557Z,7.37
2019-03-22T10:17:22.242Z,6.63
2019-03-22T10:19:25.855Z,6.43
2019-03-22T10:21:29.405Z,7.03
2019-03-22T10:23:33.078Z,6.60
2019-03-22T10:25:36.745Z,6.83
2019-03-22T10:27:40.323Z,6.57
2019-03-22T10:29:44.001Z,6.50
2019-03-22T10:31:47.597Z,6.23
2019-03-22T10:33:51.231Z,6.73
2019-03-22T10:35:54.938Z,6.60
2019-03-22T10:38:00.841Z,6.50
2019-03-22T10:40:05.323Z,6.53
2019-03-22T10:42:08.885Z,6.13
2019-03-22T10:44:12.678Z,6.10
2019-03-22T10:46:16.604Z,5.40
2019-03-22T10:48:20.287Z,5.37
2019-03-22T10:50:24.711Z,5.70
2019-03-22T10:52:28.408Z,5.53
2019-03-22T10:54:32.312Z,5.20
2019-03-22T10:56:36.025Z,4.30
2019-03-22T10:58:39.643Z,4.30
2019-03-22T11:00:43.343Z,4.97
2019-03-22T11:02:47.452Z,4.77
2019-03-22T11:04:51.196Z,5.10
2019-03-22T11:06:54.820Z,5.60
2019-03-22T11:08:58.544Z,5.30
2019-03-22T11:11:02.156Z,4.67
2019-03-22T11:13:05.926Z,5.47
2019-03-22T11:15:12.480Z,4.80
2019-03-22T11:17:16.087Z,5.03
2019-03-22T11:19:20.279Z,3.97
2019-03-22T11:21:23.984Z,4.73
2019-03-22T11:23:27.614Z,4.40
2019-03-22T11:25:32.041Z,4.90
2019-03-22T11:27:35.650Z,4.37
2019-03-22T11:29:39.505Z,4.07
2019-03-22T11:31:43.235Z,4.80
2019-03-22T11:33:46.978Z,4.80
2019-03-22T11:35:50.672Z,4.90
2019-03-22T11:37:54.424Z,4.87
2019-03-22T11:39:58.119Z,4.90
2019-03-22T11:42:01.733Z,5.63
2019-03-22T11:44:07.263Z,4.47
2019-03-22T11:46:10.923Z,5.00
2019-03-22T11:48:14.538Z,5.43
2019-03-22T11:50:18.339Z,5.33
2019-03-22T11:52:22.019Z,5.57
2019-03-22T11:54:25.710Z,5.37
2019-03-22T11:56:29.478Z,4.50
2019-03-22T11:58:33.067Z,5.10
2019-03-22T12:00:36.724Z,5.17
2019-03-22T12:02:40.564Z,4.80
2019-03-22T12:04:44.202Z,4.43
2019-03-22T12:06:47.941Z,5.70
2019-03-22T12:08:51.616Z,6.00
2019-03-22T12:10:55.179Z,6.07
2019-03-22T12:12:58.725Z,4.97
2019-03-22T12:15:02.388Z,5.53
2019-03-22T12:17:06.055Z,5.50
2019-03-22T12:19:09.696Z,4.97
2019-03-22T12:21:13.392Z,5.10
2019-03-22T12:23:17.452Z,5.30
2019-03-22T12:25:27.375Z,4.87
2019-03-22T12:27:36.515Z,4.67
2019-03-22T12:29:36.392Z,4.47
2019-03-22T12:31:40.248Z,4.53
2019-03-22T12:33:44.297Z,4.63
2019-03-22T12:35:48.069Z,5.37
2019-03-22T12:37:51.648Z,4.63
2019-03-22T12:39:55.379Z,5.07
2019-03-22T12:41:59.745Z,5.00
2019-03-22T12:44:03.365Z,4.97
2019-03-22T12:46:07.722Z,4.43
2019-03-22T12:48:11.382Z,4.40
2019-03-22T12:50:16.127Z,5.33
2019-03-22T12:52:19.986Z,4.10
2019-03-22T12:54:23.857Z,4.20
2019-03-22T12:56:28.912Z,4.10
2019-03-22T12:58:32.890Z,3.17
2019-03-22T13:00:36.768Z,3.97
2019-03-22T13:02:42.457Z,3.70
2019-03-22T13:04:45.785Z,3.77
2019-03-22T13:06:49.645Z,3.30
2019-03-22T13:08:53.383Z,3.67
2019-03-22T13:10:58.878Z,4.73
2019-03-22T13:13:02.692Z,3.50
2019-03-22T13:15:07.690Z,4.00
2019-03-22T13:17:11.497Z,4.97
2019-03-22T13:19:15.292Z,4.30
2019-03-22T13:21:19.152Z,4.30
2019-03-22T13:23:22.824Z,4.67
2019-03-22T13:25:26.695Z,4.50
2019-03-22T13:27:30.445Z,3.93
2019-03-22T13:29:34.205Z,4.60
2019-03-22T13:31:39.575Z,4.60
2019-03-22T13:33:43.303Z,6.40
2019-03-22T13:35:47.248Z,4.93
2019-03-22T13:37:52.228Z,5.50
2019-03-22T13:39:56.083Z,4.90
2019-03-22T13:41:59.917Z,5.67
2019-03-22T13:44:03.569Z,4.97
2019-03-22T13:46:07.413Z,5.00
2019-03-22T13:48:14.150Z,5.23
2019-03-22T13:50:17.877Z,4.80
2019-03-22T13:52:21.591Z,5.20
2019-03-22T13:54:25.292Z,4.27
2019-03-22T13:56:30.101Z,5.30
2019-03-22T13:58:34.007Z,5.50
2019-03-22T14:00:37.723Z,4.87
2019-03-22T14:02:41.472Z,5.33
2019-03-22T14:04:45.173Z,4.73
2019-03-22T14:06:48.957Z,5.00
2019-03-22T14:08:54.753Z,4.67
2019-03-22T14:10:58.621Z,4.30
2019-03-22T14:13:03.187Z,4.83
2019-03-22T14:15:07.594Z,5.50
2019-03-22T14:17:11.367Z,4.90
2019-03-22T14:19:15.194Z,4.60
2019-03-22T14:21:18.957Z,5.60
2019-03-22T14:23:23.240Z,5.20
2019-03-22T14:25:27.010Z,5.07
2019-03-22T14:27:30.685Z,4.77
2019-03-22T14:29:34.425Z,4.90
2019-03-22T14:31:38.108Z,5.10
2019-03-22T14:33:41.773Z,4.70
2019-03-22T14:35:47.659Z,4.70
2019-03-22T14:37:50.925Z,5.40
2019-03-22T14:39:54.705Z,5.13
2019-03-22T14:41:58.478Z,4.60
2019-03-22T14:44:02.158Z,4.80
2019-03-22T14:46:06.049Z,4.93
2019-03-22T14:48:09.643Z,4.67
2019-03-22T14:50:13.513Z,4.80
2019-03-22T14:52:17.243Z,4.93
2019-03-22T14:54:20.892Z,4.90
2019-03-22T14:56:25.386Z,4.80
2019-03-22T14:58:30.157Z,5.07
2019-03-22T15:00:33.797Z,5.90
2019-03-22T15:02:37.480Z,5.20
2019-03-22T15:04:41.138Z,5.27
2019-03-22T15:06:45.088Z,5.40
2019-03-22T15:08:48.820Z,5.73
2019-03-22T15:10:53.453Z,5.73
2019-03-22T15:12:58.101Z,6.20
2019-03-22T15:15:05.968Z,6.60
2019-03-22T15:17:13.916Z,5.87
2019-03-22T15:19:27.946Z,5.20
2019-03-22T15:21:34.734Z,5.57
2019-03-22T15:23:46.111Z,5.07
2019-03-22T15:26:07.980Z,5.20
2019-03-22T15:28:17.553Z,5.73
2019-03-22T15:30:28.713Z,5.93
2019-03-22T15:32:52.242Z,5.23
2019-03-22T15:35:00.669Z,5.00
2019-03-22T15:37:22.292Z,5.30
2019-03-22T15:39:27.856Z,5.10
2019-03-22T15:41:31.763Z,5.07
2019-03-22T15:43:35.361Z,5.17
2019-03-22T15:45:39.040Z,5.27
2019-03-22T15:47:42.802Z,5.37
2019-03-22T15:49:46.612Z,4.80
2019-03-22T15:51:50.279Z,5.53
2019-03-22T15:53:54.158Z,5.40
2019-03-22T15:55:57.828Z,6.03
2019-03-22T15:58:01.997Z,5.53
2019-03-22T16:00:08.905Z,4.50
2019-03-22T16:02:12.742Z,4.53
2019-03-22T16:04:17.922Z,5.10
2019-03-22T16:06:21.861Z,4.23
2019-03-22T16:08:25.566Z,4.90
2019-03-22T16:10:29.296Z,4.90
2019-03-22T16:12:33.146Z,3.93
2019-03-22T16:14:36.793Z,5.20
2019-03-22T16:16:40.498Z,5.30
2019-03-22T16:18:44.250Z,5.70
2019-03-22T16:20:47.968Z,6.07
2019-03-22T16:22:52.755Z,5.60
2019-03-22T16:24:56.574Z,6.20
2019-03-22T16:27:00.399Z,5.40
2019-03-22T16:29:04.190Z,6.50
2019-03-22T16:31:07.776Z,6.83
2019-03-22T16:33:11.529Z,6.50
2019-03-22T16:35:16.726Z,6.47
2019-03-22T16:37:20.363Z,6.87
2019-03-22T16:39:24.042Z,6.20
2019-03-22T16:41:27.863Z,6.20
2019-03-22T16:43:31.640Z,6.67
2019-03-22T16:45:39.631Z,5.73
2019-03-22T16:47:43.428Z,6.07
2019-03-22T16:49:47.038Z,6.07
2019-03-22T16:51:50.612Z,6.20
2019-03-22T16:53:54.231Z,6.13
2019-03-22T16:55:57.838Z,6.20
2019-03-22T16:58:01.513Z,5.63
2019-03-22T17:00:08.202Z,5.73
2019-03-22T17:02:12.015Z,5.97
2019-03-22T17:04:15.766Z,5.57
2019-03-22T17:06:19.482Z,5.33
2019-03-22T17:08:23.175Z,5.30
2019-03-22T17:10:26.831Z,6.40
2019-03-22T17:12:32.202Z,5.67
2019-03-22T17:14:37.649Z,6.33
2019-03-22T17:16:41.454Z,6.00
2019-03-22T17:18:45.237Z,6.17
2019-03-22T17:20:48.937Z,5.70
2019-03-22T17:22:52.665Z,6.03
2019-03-22T17:24:58.263Z,5.13
2019-03-22T17:27:01.709Z,5.10
2019-03-22T17:29:05.359Z,5.57
2019-03-22T17:31:09.083Z,5.40
2019-03-22T17:33:12.932Z,5.87
2019-03-22T17:35:19.419Z,5.37
2019-03-22T17:37:23.590Z,5.20
2019-03-22T17:39:27.331Z,4.70
2019-03-22T17:41:30.983Z,4.83
2019-03-22T17:43:34.958Z,5.23
2019-03-22T17:45:39.662Z,5.37
2019-03-22T17:47:43.325Z,5.00
2019-03-22T17:49:48.519Z,5.83
2019-03-22T17:51:53.146Z,5.33
2019-03-22T17:53:56.740Z,5.17
2019-03-22T17:56:00.412Z,5.30
2019-03-22T17:58:04.272Z,5.03
2019-03-22T18:00:12.551Z,4.60
2019-03-22T18:02:18.677Z,4.97
2019-03-22T18:04:24.511Z,4.23
2019-03-22T18:06:28.312Z,4.60
2019-03-22T18:08:33.108Z,4.50
2019-03-22T18:10:36.773Z,4.60
2019-03-22T18:12:40.402Z,4.80
2019-03-22T18:14:44.096Z,5.90
2019-03-22T18:16:47.766Z,7.40
2019-03-22T18:18:51.548Z,5.40
2019-03-22T18:20:55.095Z,7.13
2019-03-22T18:22:58.763Z,5.47
2019-03-22T18:25:02.463Z,6.37
2019-03-22T18:27:06.166Z,6.07
2019-03-22T18:29:09.862Z,6.03
2019-03-22T18:31:13.542Z,5.90
2019-03-22T18:33:17.352Z,5.77
2019-03-22T18:35:21.014Z,4.67
2019-03-22T18:37:24.597Z,5.30
2019-03-22T18:39:28.223Z,4.90
2019-03-22T18:41:37.353Z,4.50
2019-03-22T18:43:41.044Z,4.57
2019-03-22T18:45:44.692Z,5.10
2019-03-22T18:47:48.263Z,6.63
2019-03-22T18:49:53.884Z,7.80
2019-03-22T18:51:57.599Z,8.80
2019-03-22T18:54:01.346Z,8.37
2019-03-22T18:56:08.238Z,8.50
2019-03-22T18:58:12.017Z,9.10
2019-03-22T19:00:17.746Z,7.60
2019-03-22T19:02:22.293Z,8.10
2019-03-22T19:04:30.150Z,9.00
2019-03-22T19:06:36.101Z,9.27
2019-03-22T19:08:41.405Z,9.77
2019-03-22T19:10:45.099Z,10.73
2019-03-22T19:12:53.625Z,12.40
2019-03-22T19:14:57.341Z,13.37
2019-03-22T19:17:02.416Z,15.10
2019-03-22T19:19:06.830Z,15.10
2019-03-22T19:21:10.616Z,15.13
2019-03-22T19:23:14.289Z,14.67
2019-03-22T19:25:18.104Z,12.83
2019-03-22T19:27:33.335Z,10.73
2019-03-22T19:32:00.999Z,10.60
2019-03-22T19:34:06.125Z,10.70
2019-03-22T19:36:09.909Z,10.73
2019-03-22T19:38:13.667Z,9.87
2019-03-22T19:40:20.691Z,11.43
2019-03-22T19:42:24.546Z,11.00
2019-03-22T19:44:30.049Z,8.90
2019-03-22T19:46:40.830Z,9.83
2019-03-22T19:48:46.144Z,9.00
2019-03-22T19:50:49.837Z,8.80
2019-03-22T19:52:54.870Z,8.70
2019-03-22T19:55:00.401Z,8.03
2019-03-22T19:57:05.550Z,8.10
2019-03-22T19:59:09.388Z,8.03
2019-03-22T20:01:20.121Z,7.47
2019-03-22T20:03:27.632Z,7.57
2019-03-22T20:05:32.936Z,6.90
2019-03-22T20:07:37.295Z,8.63
2019-03-22T20:09:42.552Z,8.50
2019-03-22T20:11:46.161Z,10.67
2019-03-22T20:13:52.606Z,13.93
2019-03-22T20:15:59.531Z,21.10
2019-03-22T20:18:04.422Z,40.93
2019-03-22T20:20:09.493Z,85.30
2019-03-22T20:22:13.742Z,85.70
2019-03-22T20:24:18.446Z,74.00
2019-03-22T20:26:23.253Z,71.50
2019-03-22T20:28:26.892Z,63.47
2019-03-22T20:30:30.660Z,55.50
2019-03-22T20:32:44.311Z,54.90
2019-03-22T20:34:50.244Z,51.10
2019-03-22T20:36:53.934Z,44.57
2019-03-22T20:38:57.663Z,41.50
2019-03-22T20:41:03.059Z,26.80
2019-03-22T20:43:06.704Z,20.40
2019-03-22T20:45:23.280Z,17.43
2019-03-22T20:47:21.647Z,16.60
2019-03-22T20:49:25.201Z,16.00
2019-03-22T20:51:42.738Z,15.67
2019-03-22T20:53:47.417Z,15.30
2019-03-22T20:55:51.046Z,13.70
2019-03-22T20:57:54.697Z,11.53
2019-03-22T20:59:58.310Z,10.87
2019-03-22T21:02:01.995Z,10.80
2019-03-22T21:04:12.836Z,8.97
2019-03-22T21:06:18.020Z,7.87
2019-03-22T21:08:21.641Z,7.20
2019-03-22T21:10:25.392Z,9.07
2019-03-22T21:12:28.964Z,13.90
2019-03-22T21:14:38.303Z,15.67
2019-03-22T21:16:42.532Z,18.47
2019-03-22T21:18:47.873Z,19.03
2019-03-22T21:20:57.663Z,18.87
2019-03-22T21:23:01.336Z,15.07
2019-03-22T21:25:06.878Z,13.90
2019-03-22T21:27:15.555Z,15.20
2019-03-22T21:29:21.036Z,15.83
2019-03-22T21:31:24.851Z,15.80
2019-03-22T21:33:28.537Z,18.70
2019-03-22T21:35:37.196Z,21.37
2019-03-22T21:37:46.401Z,24.67
2019-03-22T21:39:50.066Z,30.00
2019-03-22T21:41:58.187Z,32.13
2019-03-22T21:44:01.862Z,27.63
2019-03-22T21:46:07.536Z,23.90
2019-03-22T21:48:10.891Z,22.37
2019-03-22T21:50:14.667Z,21.60
2019-03-22T21:52:18.339Z,21.40
2019-03-22T21:54:22.094Z,23.60
2019-03-22T21:56:27.604Z,23.20
2019-03-22T21:58:30.999Z,22.10
2019-03-22T22:00:37.697Z,20.40
2019-03-22T22:02:41.345Z,21.60
2019-03-22T22:04:47.096Z,21.40
2019-03-22T22:06:50.704Z,19.47
2019-03-22T22:08:55.592Z,19.83
2019-03-22T22:11:00.157Z,17.40
2019-03-22T22:13:11.258Z,14.00
2019-03-22T22:15:15.320Z,11.20
2019-03-22T22:17:21.956Z,10.07
2019-03-22T22:19:25.661Z,8.50
2019-03-22T22:21:29.444Z,8.30
2019-03-22T22:23:33.193Z,8.07
2019-03-22T22:25:36.861Z,8.53
2019-03-22T22:27:40.591Z,7.90
2019-03-22T22:29:50.685Z,8.10
2019-03-22T22:31:54.354Z,8.30
2019-03-22T22:33:58.106Z,7.63
2019-03-22T22:36:02.156Z,8.40
2019-03-22T22:38:07.100Z,9.13
2019-03-22T22:40:12.133Z,9.10
2019-03-22T22:42:18.509Z,8.60
2019-03-22T22:44:22.366Z,8.47
2019-03-22T22:46:26.198Z,8.90
2019-03-22T22:48:30.137Z,8.60
2019-03-22T22:50:36.915Z,8.27
2019-03-22T22:52:40.632Z,6.70
2019-03-22T22:54:44.330Z,6.73
2019-03-22T22:56:47.979Z,7.30
2019-03-22T22:58:51.743Z,7.67
2019-03-22T23:00:55.480Z,7.30
2019-03-22T23:02:59.535Z,7.93
2019-03-22T23:05:03.321Z,8.50
2019-03-22T23:07:06.992Z,9.23
2019-03-22T23:09:10.706Z,9.93
2019-03-22T23:11:14.565Z,9.30
2019-03-22T23:13:18.210Z,10.20
2019-03-22T23:15:21.980Z,10.80
2019-03-22T23:17:25.638Z,10.80
2019-03-22T23:19:29.317Z,9.23
2019-03-22T23:21:33.350Z,7.93
2019-03-22T23:23:37.491Z,8.57
2019-03-22T23:25:41.282Z,6.90
2019-03-22T23:27:44.844Z,6.70
2019-03-22T23:29:48.497Z,6.67
2019-03-22T23:31:52.144Z,10.00
2019-03-22T23:33:55.736Z,11.60
2019-03-22T23:35:59.354Z,14.67
2019-03-22T23:38:03.002Z,16.07
2019-03-22T23:40:07.358Z,15.93
2019-03-22T23:42:11.079Z,16.23
2019-03-22T23:44:14.662Z,16.03
2019-03-22T23:46:18.263Z,14.10
2019-03-22T23:48:21.879Z,12.60
2019-03-22T23:50:25.658Z,13.00
2019-03-22T23:52:29.311Z,10.83
2019-03-22T23:54:33.591Z,11.00
2019-03-22T23:56:37.190Z,11.43
2019-03-22T23:58:41.635Z,11.70
